Time;durP1;ratioP1;P1;durP2;ratioP2;P2;SDS_P1;SDS_P2;PMS_P1;PMS_P2;Temp;Humidity;BMP_temperature;BMP_pressure;BME280_temperature;BME280_humidity;BME280_pressure;Samples;Min_cycle;Max_cycle;Signal;HPM_P1;HPM_P2
2022/08/09 00:01:47;;;;;;;5.97;3.30;;;;;;;;;;5050019;28;20476;-82
2022/08/09 00:04:13;;;;;;;4.57;3.70;;;;;;;;;;5049781;28;20450;-81
2022/08/09 00:06:39;;;;;;;5.15;3.30;;;;;;;;;;5049124;28;20425;-80
2022/08/09 00:09:08;;;;;;;5.40;3.90;;;;;;;;;;5048928;28;20434;-80
2022/08/09 00:11:35;;;;;;;4.47;3.47;;;;;;;;;;5047822;28;20423;-81
2022/08/09 00:14:01;;;;;;;7.45;4.00;;;;;;;;;;5049792;28;20464;-81
2022/08/09 00:16:27;;;;;;;5.10;3.47;;;;;;;;;;5047540;28;20423;-81
2022/08/09 00:18:54;;;;;;;5.25;3.72;;;;;;;;;;5046947;28;20423;-81
2022/08/09 00:21:20;;;;;;;4.93;3.60;;;;;;;;;;5053194;28;20508;-81
2022/08/09 00:23:47;;;;;;;4.70;3.50;;;;;;;;;;5067930;28;20431;-81
2022/08/09 00:26:14;;;;;;;4.95;3.47;;;;;;;;;;5047302;28;20492;-81
2022/08/09 00:28:41;;;;;;;4.50;3.35;;;;;;;;;;5048986;28;20433;-84
2022/08/09 00:31:08;;;;;;;5.50;3.10;;;;;;;;;;5048039;28;20483;-83
2022/08/09 00:33:34;;;;;;;3.50;3.20;;;;;;;;;;5047667;28;20924;-81
2022/08/09 00:36:01;;;;;;;4.28;3.42;;;;;;;;;;5047941;28;20422;-81
2022/08/09 00:38:27;;;;;;;5.53;3.10;;;;;;;;;;5073307;28;20494;-80
2022/08/09 00:40:54;;;;;;;4.20;3.30;;;;;;;;;;5045469;28;20402;-83
2022/08/09 00:43:22;;;;;;;5.00;3.85;;;;;;;;;;5046153;28;20516;-81
2022/08/09 00:45:49;;;;;;;3.40;3.10;;;;;;;;;;5038680;28;20441;-80
2022/08/09 00:48:15;;;;;;;3.80;3.40;;;;;;;;;;5075287;28;20814;-83
2022/08/09 00:50:42;;;;;;;4.57;3.47;;;;;;;;;;5045765;28;20435;-82
2022/08/09 00:53:09;;;;;;;3.50;3.20;;;;;;;;;;5047811;28;20440;-83
2022/08/09 00:55:37;;;;;;;4.03;3.00;;;;;;;;;;5047903;28;20467;-83
2022/08/09 00:58:03;;;;;;;4.57;3.20;;;;;;;;;;5049461;28;20433;-81
2022/08/09 01:00:32;;;;;;;4.40;3.17;;;;;;;;;;5047614;28;20429;-80
2022/08/09 01:03:08;;;;;;;4.60;3.38;;;;;;;;;;5056976;28;20425;-80
2022/08/09 01:05:38;;;;;;;5.18;3.45;;;;;;;;;;5067595;28;20428;-81
2022/08/09 01:08:08;;;;;;;4.47;3.53;;;;;;;;;;5047270;28;20441;-82
2022/08/09 01:10:39;;;;;;;4.75;3.20;;;;;;;;;;5047806;28;20429;-81
2022/08/09 01:13:09;;;;;;;4.78;3.25;;;;;;;;;;5047459;28;20437;-81
2022/08/09 01:15:39;;;;;;;5.10;3.67;;;;;;;;;;5048712;28;20508;-81
2022/08/09 01:18:07;;;;;;;4.57;3.50;;;;;;;;;;5046800;28;20441;-81
2022/08/09 01:20:37;;;;;;;4.97;3.40;;;;;;;;;;5047247;28;20433;-81
2022/08/09 01:23:08;;;;;;;6.28;3.45;;;;;;;;;;5046831;28;20415;-81
2022/08/09 01:25:40;;;;;;;5.53;3.70;;;;;;;;;;5045390;28;20431;-81
2022/08/09 01:28:09;;;;;;;4.63;3.40;;;;;;;;;;5045361;28;20486;-81
2022/08/09 01:30:36;;;;;;;5.80;3.33;;;;;;;;;;5046521;28;21086;-81
2022/08/09 01:33:05;;;;;;;5.80;3.63;;;;;;;;;;5047352;28;20436;-81
2022/08/09 01:35:36;;;;;;;4.13;3.40;;;;;;;;;;5046010;28;20546;-81
2022/08/09 01:38:04;;;;;;;6.00;3.90;;;;;;;;;;5065658;28;20504;-81
2022/08/09 01:40:33;;;;;;;5.38;4.10;;;;;;;;;;5067522;28;20427;-81
2022/08/09 01:43:00;;;;;;;4.50;3.70;;;;;;;;;;5067569;28;20432;-81
2022/08/09 01:45:28;;;;;;;6.43;3.70;;;;;;;;;;5067248;28;20477;-80
2022/08/09 01:47:56;;;;;;;6.10;4.30;;;;;;;;;;5067012;28;20420;-81
2022/08/09 01:50:24;;;;;;;5.10;4.15;;;;;;;;;;5066949;28;20434;-81
2022/08/09 01:52:53;;;;;;;3.97;3.42;;;;;;;;;;5066556;28;20454;-81
2022/08/09 01:55:22;;;;;;;4.80;3.53;;;;;;;;;;5068518;28;20420;-80
2022/08/09 01:57:50;;;;;;;6.20;3.80;;;;;;;;;;5066460;28;20443;-81
2022/08/09 02:00:17;;;;;;;5.27;3.70;;;;;;;;;;5067656;28;20440;-81
2022/08/09 02:02:46;;;;;;;5.05;3.60;;;;;;;;;;5066423;28;20773;-81
2022/08/09 02:05:14;;;;;;;4.72;3.67;;;;;;;;;;5067170;28;20422;-81
2022/08/09 02:07:44;;;;;;;4.22;3.83;;;;;;;;;;5064895;28;20440;-80
2022/08/09 02:10:13;;;;;;;4.35;3.60;;;;;;;;;;5064547;28;20944;-82
2022/08/09 02:12:40;;;;;;;3.95;3.20;;;;;;;;;;5066522;28;20439;-81
2022/08/09 02:15:08;;;;;;;5.30;3.50;;;;;;;;;;5065755;28;20465;-81
2022/08/09 02:17:35;;;;;;;4.15;3.33;;;;;;;;;;5064723;28;20427;-81
2022/08/09 02:20:05;;;;;;;3.60;3.30;;;;;;;;;;5066201;28;20431;-81
2022/08/09 02:22:32;;;;;;;3.58;2.90;;;;;;;;;;5067437;28;20471;-81
2022/08/09 02:25:01;;;;;;;4.13;3.30;;;;;;;;;;5065358;28;20502;-81
2022/08/09 02:27:29;;;;;;;6.72;3.55;;;;;;;;;;5065523;28;20458;-81
2022/08/09 02:29:55;;;;;;;5.00;3.47;;;;;;;;;;5064994;28;20441;-81
2022/08/09 02:32:23;;;;;;;6.00;3.85;;;;;;;;;;5066996;28;20412;-81
2022/08/09 02:34:52;;;;;;;3.95;3.55;;;;;;;;;;5067458;28;20520;-80
2022/08/09 02:37:22;;;;;;;6.00;3.80;;;;;;;;;;5068321;28;20416;-82
2022/08/09 02:39:50;;;;;;;5.80;3.72;;;;;;;;;;5069311;28;20430;-80
2022/08/09 02:42:19;;;;;;;5.28;3.60;;;;;;;;;;5068620;28;20473;-80
2022/08/09 02:44:49;;;;;;;6.68;3.65;;;;;;;;;;5071249;28;20434;-80
2022/08/09 02:47:18;;;;;;;6.65;3.65;;;;;;;;;;5069095;28;20423;-81
2022/08/09 02:49:48;;;;;;;6.13;3.50;;;;;;;;;;5071021;28;20431;-81
2022/08/09 02:52:16;;;;;;;6.00;4.00;;;;;;;;;;5069507;28;20425;-80
2022/08/09 02:54:45;;;;;;;6.57;3.80;;;;;;;;;;5070880;28;20419;-81
2022/08/09 02:57:12;;;;;;;5.15;4.05;;;;;;;;;;5069946;28;20523;-81
2022/08/09 02:59:39;;;;;;;5.90;4.28;;;;;;;;;;5069082;28;20425;-80
2022/08/09 03:02:06;;;;;;;4.23;3.67;;;;;;;;;;5069526;28;20528;-81
2022/08/09 03:04:33;;;;;;;6.13;3.53;;;;;;;;;;5068505;28;21479;-80
2022/08/09 03:07:02;;;;;;;6.85;4.65;;;;;;;;;;5068192;28;20429;-81
2022/08/09 03:09:29;;;;;;;4.80;4.30;;;;;;;;;;5068695;28;20442;-82
2022/08/09 03:11:57;;;;;;;7.03;4.30;;;;;;;;;;5067206;28;20808;-80
2022/08/09 03:14:25;;;;;;;7.35;4.70;;;;;;;;;;5067952;28;20435;-83
2022/08/09 03:16:52;;;;;;;6.00;4.80;;;;;;;;;;5066323;28;20427;-83
2022/08/09 03:19:19;;;;;;;6.60;4.22;;;;;;;;;;5068087;28;20430;-84
2022/08/09 03:21:49;;;;;;;6.68;4.55;;;;;;;;;;5069060;28;20432;-81
2022/08/09 03:24:15;;;;;;;8.18;4.80;;;;;;;;;;5069225;28;20439;-81
2022/08/09 03:26:42;;;;;;;7.22;5.15;;;;;;;;;;5067934;28;20423;-81
2022/08/09 03:29:10;;;;;;;6.17;4.50;;;;;;;;;;5066117;28;20436;-83
2022/08/09 03:31:38;;;;;;;6.85;4.30;;;;;;;;;;5067814;28;20423;-81
2022/08/09 03:34:04;;;;;;;6.75;4.25;;;;;;;;;;5069449;28;20423;-82
2022/08/09 03:36:31;;;;;;;4.30;3.90;;;;;;;;;;5068954;28;20415;-83
2022/08/09 03:38:58;;;;;;;6.03;4.90;;;;;;;;;;5067948;28;20890;-83
2022/08/09 03:41:25;;;;;;;7.95;5.05;;;;;;;;;;5067088;28;21077;-83
2022/08/09 03:43:51;;;;;;;8.50;4.90;;;;;;;;;;5067612;28;20427;-82
2022/08/09 03:46:19;;;;;;;7.30;4.60;;;;;;;;;;5066841;28;20519;-81
2022/08/09 03:48:46;;;;;;;8.53;4.30;;;;;;;;;;5068294;28;20438;-82
2022/08/09 03:51:13;;;;;;;6.15;4.40;;;;;;;;;;5061912;28;20411;-81
2022/08/09 03:53:40;;;;;;;7.90;5.15;;;;;;;;;;5046553;28;20437;-81
2022/08/09 03:56:08;;;;;;;7.43;4.40;;;;;;;;;;5047873;28;20423;-82
2022/08/09 03:58:34;;;;;;;6.33;4.67;;;;;;;;;;5044754;28;20480;-81
2022/08/09 04:01:01;;;;;;;4.50;4.10;;;;;;;;;;5045464;28;20451;-81
2022/08/09 04:03:30;;;;;;;5.07;4.28;;;;;;;;;;5046742;28;20439;-84
2022/08/09 04:05:57;;;;;;;6.53;4.28;;;;;;;;;;5046976;28;20401;-83
2022/08/09 04:08:23;;;;;;;5.18;4.03;;;;;;;;;;5048038;28;20405;-82
2022/08/09 04:10:50;;;;;;;6.40;4.57;;;;;;;;;;5046439;28;20467;-82
2022/08/09 04:13:17;;;;;;;5.37;4.87;;;;;;;;;;5046736;28;20429;-82
2022/08/09 04:15:44;;;;;;;6.30;4.40;;;;;;;;;;5046406;28;20426;-81
2022/08/09 04:18:10;;;;;;;6.45;4.60;;;;;;;;;;5045358;28;20438;-82
2022/08/09 04:20:39;;;;;;;5.28;4.18;;;;;;;;;;5029077;28;20436;-82
2022/08/09 04:23:06;;;;;;;5.10;4.60;;;;;;;;;;5048283;28;20488;-81
2022/08/09 04:25:33;;;;;;;5.80;4.50;;;;;;;;;;5048252;28;20853;-81
2022/08/09 04:27:59;;;;;;;7.20;4.97;;;;;;;;;;5047267;28;20900;-82
2022/08/09 04:30:28;;;;;;;6.47;5.20;;;;;;;;;;5049213;28;20437;-82
2022/08/09 04:32:55;;;;;;;6.50;4.65;;;;;;;;;;5047254;28;20525;-81
2022/08/09 04:35:22;;;;;;;9.10;5.80;;;;;;;;;;5048427;28;20440;-82
2022/08/09 04:37:49;;;;;;;5.65;4.70;;;;;;;;;;5046807;28;20434;-81
2022/08/09 04:40:16;;;;;;;7.68;4.80;;;;;;;;;;5046388;28;20433;-82
2022/08/09 04:42:42;;;;;;;6.00;5.40;;;;;;;;;;5045677;28;20453;-81
2022/08/09 04:45:09;;;;;;;7.63;4.90;;;;;;;;;;5044958;28;20462;-82
2022/08/09 04:47:36;;;;;;;10.00;5.63;;;;;;;;;;5044686;28;20545;-82
2022/08/09 04:50:02;;;;;;;6.05;4.90;;;;;;;;;;5046097;28;20433;-82
2022/08/09 04:52:29;;;;;;;9.50;5.32;;;;;;;;;;5066822;28;20419;-82
2022/08/09 04:54:59;;;;;;;5.90;5.00;;;;;;;;;;5048019;28;20420;-82
2022/08/09 04:57:25;;;;;;;6.93;5.18;;;;;;;;;;5045129;28;20425;-82
2022/08/09 04:59:52;;;;;;;6.40;4.88;;;;;;;;;;5045882;28;20415;-82
2022/08/09 05:02:19;;;;;;;7.57;5.25;;;;;;;;;;5044617;28;20431;-81
2022/08/09 05:04:45;;;;;;;7.80;5.10;;;;;;;;;;5045613;28;20432;-82
2022/08/09 05:07:12;;;;;;;8.05;5.78;;;;;;;;;;5045199;28;20929;-82
2022/08/09 05:09:38;;;;;;;7.77;6.03;;;;;;;;;;5046535;28;20434;-81
2022/08/09 05:12:06;;;;;;;8.48;5.82;;;;;;;;;;5045351;28;20426;-82
2022/08/09 05:14:33;;;;;;;7.00;5.80;;;;;;;;;;5046008;28;20433;-82
2022/08/09 05:17:00;;;;;;;7.90;5.85;;;;;;;;;;5044424;28;20422;-80
2022/08/09 05:19:28;;;;;;;6.55;5.40;;;;;;;;;;5044968;28;20426;-82
2022/08/09 05:21:55;;;;;;;7.72;5.97;;;;;;;;;;5044149;28;20427;-82
2022/08/09 05:24:25;;;;;;;8.52;6.40;;;;;;;;;;5046460;28;20415;-82
2022/08/09 05:26:52;;;;;;;7.35;6.30;;;;;;;;;;5042505;28;20505;-80
2022/08/09 05:29:20;;;;;;;8.50;6.40;;;;;;;;;;5045236;28;20448;-81
2022/08/09 05:31:46;;;;;;;7.35;5.97;;;;;;;;;;5040564;28;20477;-81
2022/08/09 05:34:14;;;;;;;9.65;7.43;;;;;;;;;;5046397;28;20432;-79
2022/08/09 05:36:40;;;;;;;9.20;7.30;;;;;;;;;;5043660;28;20430;-80
2022/08/09 05:39:07;;;;;;;9.23;6.72;;;;;;;;;;5043935;28;20476;-80
2022/08/09 05:41:33;;;;;;;9.48;7.32;;;;;;;;;;5043993;28;20413;-79
2022/08/09 05:44:00;;;;;;;9.30;7.50;;;;;;;;;;5042891;28;20458;-81
2022/08/09 05:46:27;;;;;;;11.35;7.90;;;;;;;;;;5042348;28;20419;-81
2022/08/09 05:48:54;;;;;;;10.18;7.43;;;;;;;;;;5043228;28;20442;-79
2022/08/09 05:51:20;;;;;;;10.82;8.02;;;;;;;;;;5043639;28;20445;-80
2022/08/09 05:53:48;;;;;;;12.40;8.73;;;;;;;;;;5045273;28;20431;-81
2022/08/09 05:56:15;;;;;;;12.00;8.45;;;;;;;;;;5042577;28;20517;-80
2022/08/09 05:58:42;;;;;;;8.35;7.10;;;;;;;;;;5045209;28;20439;-81
2022/08/09 06:01:08;;;;;;;10.20;7.10;;;;;;;;;;5042980;28;20423;-80
2022/08/09 06:03:36;;;;;;;9.73;7.05;;;;;;;;;;5045973;28;20431;-80
2022/08/09 06:06:02;;;;;;;8.32;6.10;;;;;;;;;;5044607;28;20410;-80
2022/08/09 06:08:29;;;;;;;8.77;5.90;;;;;;;;;;5041852;28;20920;-80
2022/08/09 06:10:55;;;;;;;9.40;5.90;;;;;;;;;;5042171;28;20409;-79
2022/08/09 06:13:22;;;;;;;7.70;4.70;;;;;;;;;;5041077;28;20447;-80
2022/08/09 06:15:49;;;;;;;8.20;5.30;;;;;;;;;;5042210;28;20438;-80
2022/08/09 06:18:16;;;;;;;8.35;4.75;;;;;;;;;;5040807;28;20437;-80
2022/08/09 06:20:44;;;;;;;6.22;4.53;;;;;;;;;;5043664;28;20437;-79
2022/08/09 06:23:10;;;;;;;9.20;5.28;;;;;;;;;;5045489;28;20433;-80
2022/08/09 06:25:36;;;;;;;8.10;4.88;;;;;;;;;;5040468;28;20425;-80
2022/08/09 06:28:04;;;;;;;6.93;4.27;;;;;;;;;;5040720;28;20444;-79
2022/08/09 06:30:30;;;;;;;7.35;4.78;;;;;;;;;;5048199;28;20417;-80
2022/08/09 06:32:56;;;;;;;5.28;4.10;;;;;;;;;;5044801;28;20436;-80
2022/08/09 06:35:23;;;;;;;6.60;3.70;;;;;;;;;;5042852;28;20429;-80
2022/08/09 06:37:51;;;;;;;5.18;3.85;;;;;;;;;;5042285;28;20423;-79
2022/08/09 06:40:17;;;;;;;5.15;3.88;;;;;;;;;;5041456;28;20444;-81
2022/08/09 06:42:43;;;;;;;6.15;3.70;;;;;;;;;;5040687;28;20464;-80
2022/08/09 06:45:10;;;;;;;5.68;3.42;;;;;;;;;;5043478;28;20928;-81
2022/08/09 06:47:36;;;;;;;5.30;3.40;;;;;;;;;;5059796;28;20427;-82
2022/08/09 06:50:03;;;;;;;4.30;3.13;;;;;;;;;;5065873;28;20435;-81
2022/08/09 06:52:30;;;;;;;4.88;3.28;;;;;;;;;;5064538;28;20414;-80
2022/08/09 06:54:58;;;;;;;5.90;3.30;;;;;;;;;;5062932;28;20440;-81
2022/08/09 06:57:25;;;;;;;4.65;2.88;;;;;;;;;;5060139;28;20448;-80
2022/08/09 06:59:52;;;;;;;5.03;3.08;;;;;;;;;;5062476;28;20424;-81
2022/08/09 07:02:19;;;;;;;5.90;2.90;;;;;;;;;;5062030;28;20425;-80
2022/08/09 07:04:45;;;;;;;6.25;3.20;;;;;;;;;;5062006;28;20442;-80
2022/08/09 07:07:12;;;;;;;5.63;3.00;;;;;;;;;;5061495;28;21011;-80
2022/08/09 07:09:38;;;;;;;4.60;3.00;;;;;;;;;;5059535;28;20446;-80
2022/08/09 07:12:07;;;;;;;3.30;2.67;;;;;;;;;;5059229;28;20496;-80
2022/08/09 07:14:34;;;;;;;3.05;2.70;;;;;;;;;;5058447;28;20463;-79
2022/08/09 07:17:00;;;;;;;2.67;2.40;;;;;;;;;;5041619;28;20439;-80
2022/08/09 07:19:26;;;;;;;5.05;2.42;;;;;;;;;;5061786;28;20426;-80
2022/08/09 07:21:53;;;;;;;3.25;2.10;;;;;;;;;;5062729;28;20417;-80
2022/08/09 07:24:19;;;;;;;5.23;2.50;;;;;;;;;;5066097;28;20408;-80
2022/08/09 07:26:45;;;;;;;3.38;2.20;;;;;;;;;;5063779;28;20416;-81
2022/08/09 07:29:13;;;;;;;2.88;2.58;;;;;;;;;;5064018;28;20430;-80
2022/08/09 07:31:40;;;;;;;8.82;2.80;;;;;;;;;;5062896;28;20415;-81
2022/08/09 07:34:07;;;;;;;4.43;2.22;;;;;;;;;;5066667;28;20836;-80
2022/08/09 07:36:33;;;;;;;2.47;2.00;;;;;;;;;;5067859;28;20498;-81
2022/08/09 07:38:59;;;;;;;2.80;2.20;;;;;;;;;;5065276;28;20427;-81
2022/08/09 07:41:26;;;;;;;2.97;2.10;;;;;;;;;;5065866;28;20427;-80
2022/08/09 07:43:52;;;;;;;2.50;2.30;;;;;;;;;;5067066;28;20468;-80
2022/08/09 07:46:20;;;;;;;3.53;2.00;;;;;;;;;;5062456;28;20407;-81
2022/08/09 07:48:47;;;;;;;3.53;2.38;;;;;;;;;;5063707;28;20497;-81
2022/08/09 07:51:13;;;;;;;2.40;2.20;;;;;;;;;;5065616;28;20423;-80
2022/08/09 07:53:40;;;;;;;2.53;1.90;;;;;;;;;;5065316;28;20419;-80
2022/08/09 07:56:06;;;;;;;4.07;2.08;;;;;;;;;;5063549;28;20940;-80
2022/08/09 07:58:32;;;;;;;2.70;2.20;;;;;;;;;;5064942;28;20431;-81
2022/08/09 08:00:59;;;;;;;2.70;2.10;;;;;;;;;;5065529;28;20411;-79
2022/08/09 08:03:26;;;;;;;3.90;2.10;;;;;;;;;;5063765;28;20442;-80
2022/08/09 08:05:53;;;;;;;2.67;1.90;;;;;;;;;;5064780;28;20438;-80
2022/08/09 08:08:20;;;;;;;2.60;2.00;;;;;;;;;;5066697;28;20441;-81
2022/08/09 08:10:46;;;;;;;3.30;1.77;;;;;;;;;;5063647;28;20903;-81
2022/08/09 08:13:13;;;;;;;1.63;1.50;;;;;;;;;;5064761;28;20438;-80
2022/08/09 08:15:39;;;;;;;3.28;1.70;;;;;;;;;;5063751;28;20429;-80
2022/08/09 08:18:05;;;;;;;2.00;1.80;;;;;;;;;;5064294;28;20417;-80
2022/08/09 08:20:33;;;;;;;3.00;1.70;;;;;;;;;;5065553;28;20429;-80
2022/08/09 08:23:02;;;;;;;4.22;1.70;;;;;;;;;;5063254;28;20429;-81
2022/08/09 08:25:28;;;;;;;3.03;1.60;;;;;;;;;;5066237;28;20423;-81
2022/08/09 08:27:55;;;;;;;2.40;1.60;;;;;;;;;;5044205;28;20431;-81
2022/08/09 08:30:21;;;;;;;2.50;1.40;;;;;;;;;;5043406;28;20444;-80
2022/08/09 08:32:47;;;;;;;2.60;1.40;;;;;;;;;;5045139;28;20422;-81
2022/08/09 08:35:14;;;;;;;2.20;1.70;;;;;;;;;;5045521;28;20920;-81
2022/08/09 08:37:42;;;;;;;2.33;1.80;;;;;;;;;;5044305;28;20419;-81
2022/08/09 08:40:09;;;;;;;2.33;1.85;;;;;;;;;;5043579;28;20447;-80
2022/08/09 08:42:35;;;;;;;3.28;2.10;;;;;;;;;;5043408;28;20444;-80
2022/08/09 08:45:03;;;;;;;2.30;2.10;;;;;;;;;;5043417;28;20436;-80
2022/08/09 08:47:29;;;;;;;4.53;2.10;;;;;;;;;;5042575;28;20433;-80
2022/08/09 08:49:56;;;;;;;3.35;1.98;;;;;;;;;;5043671;28;20421;-81
2022/08/09 08:52:24;;;;;;;5.18;1.90;;;;;;;;;;5043811;28;20425;-80
2022/08/09 08:54:52;;;;;;;2.60;1.70;;;;;;;;;;5043945;28;20436;-80
2022/08/09 08:57:19;;;;;;;1.60;1.50;;;;;;;;;;5041728;28;20430;-81
2022/08/09 08:59:46;;;;;;;2.72;1.67;;;;;;;;;;5043451;28;20429;-81
2022/08/09 09:02:18;;;;;;;3.80;1.60;;;;;;;;;;5045963;28;20421;-80
2022/08/09 09:04:45;;;;;;;2.10;1.50;;;;;;;;;;5044712;28;20438;-80
2022/08/09 09:07:13;;;;;;;1.30;1.20;;;;;;;;;;5040299;28;20421;-81
2022/08/09 09:09:41;;;;;;;2.13;1.30;;;;;;;;;;5046029;28;20812;-80
2022/08/09 09:12:09;;;;;;;2.13;1.50;;;;;;;;;;5044702;28;20443;-81
2022/08/09 09:14:36;;;;;;;2.30;1.60;;;;;;;;;;5044093;28;20424;-81
2022/08/09 09:17:02;;;;;;;2.60;1.50;;;;;;;;;;5044288;28;20945;-80
2022/08/09 09:19:30;;;;;;;2.38;1.50;;;;;;;;;;5044699;28;20474;-81
2022/08/09 09:22:01;;;;;;;1.42;1.33;;;;;;;;;;5043559;28;20435;-81
2022/08/09 09:24:30;;;;;;;2.75;1.60;;;;;;;;;;5045928;28;20455;-80
2022/08/09 09:26:57;;;;;;;4.93;1.50;;;;;;;;;;5043445;28;20439;-81
2022/08/09 09:29:29;;;;;;;2.00;1.40;;;;;;;;;;5044223;28;20429;-80
2022/08/09 09:31:56;;;;;;;1.90;1.58;;;;;;;;;;5041557;28;20421;-81
2022/08/09 09:34:22;;;;;;;2.60;1.55;;;;;;;;;;5041833;28;20429;-80
2022/08/09 09:36:49;;;;;;;2.80;1.50;;;;;;;;;;5044459;28;20783;-79
2022/08/09 09:39:17;;;;;;;1.60;1.50;;;;;;;;;;5042130;28;20845;-80
2022/08/09 09:41:43;;;;;;;2.08;1.70;;;;;;;;;;5043886;28;20427;-81
2022/08/09 09:44:10;;;;;;;1.60;1.50;;;;;;;;;;5043064;28;20912;-81
2022/08/09 09:46:38;;;;;;;2.00;1.30;;;;;;;;;;5041859;28;20489;-81
2022/08/09 09:49:06;;;;;;;2.30;1.50;;;;;;;;;;5042425;28;20433;-80
2022/08/09 09:51:33;;;;;;;1.50;1.40;;;;;;;;;;5043738;28;20432;-80
2022/08/09 09:54:03;;;;;;;2.80;1.30;;;;;;;;;;5043721;28;20441;-80
2022/08/09 09:56:31;;;;;;;2.47;1.58;;;;;;;;;;5041186;28;20421;-81
2022/08/09 09:58:58;;;;;;;2.85;1.58;;;;;;;;;;5040016;28;26058;-79
2022/08/09 10:01:24;;;;;;;2.53;1.55;;;;;;;;;;5041147;28;20476;-80
2022/08/09 10:03:53;;;;;;;1.60;1.50;;;;;;;;;;5040744;28;20413;-80
2022/08/09 10:06:19;;;;;;;1.98;1.67;;;;;;;;;;5041633;28;20522;-81
2022/08/09 10:08:46;;;;;;;2.97;1.60;;;;;;;;;;5043638;28;20439;-80
2022/08/09 10:11:20;;;;;;;1.70;1.60;;;;;;;;;;5042429;28;20772;-81
2022/08/09 10:13:47;;;;;;;1.90;1.30;;;;;;;;;;5043949;28;20431;-80
2022/08/09 10:16:13;;;;;;;2.40;1.55;;;;;;;;;;5041553;28;20510;-79
2022/08/09 10:18:49;;;;;;;2.10;1.58;;;;;;;;;;5040102;28;20917;-79
2022/08/09 10:21:17;;;;;;;2.42;1.70;;;;;;;;;;5041913;28;20426;-79
2022/08/09 10:23:43;;;;;;;2.53;1.60;;;;;;;;;;5041206;28;20424;-80
2022/08/09 10:26:10;;;;;;;2.00;1.60;;;;;;;;;;5039727;28;20429;-80
2022/08/09 10:28:37;;;;;;;3.10;1.40;;;;;;;;;;5041976;28;20433;-79
2022/08/09 10:31:04;;;;;;;4.27;1.63;;;;;;;;;;5039897;28;20413;-80
2022/08/09 10:33:30;;;;;;;1.70;1.40;;;;;;;;;;5040729;28;20445;-82
2022/08/09 10:35:57;;;;;;;2.85;1.60;;;;;;;;;;5039510;28;20419;-81
2022/08/09 10:38:25;;;;;;;1.75;1.30;;;;;;;;;;5040912;28;20425;-80
2022/08/09 10:40:51;;;;;;;2.50;1.70;;;;;;;;;;5038774;28;20439;-80
2022/08/09 10:43:18;;;;;;;4.17;1.40;;;;;;;;;;5039047;28;20816;-79
2022/08/09 10:45:45;;;;;;;2.15;1.60;;;;;;;;;;5038684;28;20417;-79
2022/08/09 10:48:13;;;;;;;4.60;1.50;;;;;;;;;;5039859;28;20903;-80
2022/08/09 10:53:38;;;;;;;1.52;1.40;;;;;;;;;;5040511;28;20424;-81
2022/08/09 10:56:18;;;;;;;1.60;1.50;;;;;;;;;;5039716;28;20467;-79
2022/08/09 10:58:45;;;;;;;2.27;1.70;;;;;;;;;;5046361;28;20936;-80
2022/08/09 11:01:31;;;;;;;1.90;1.30;;;;;;;;;;5044089;28;20409;-82
2022/08/09 11:04:23;;;;;;;1.70;1.60;;;;;;;;;;5044806;28;20465;-80
2022/08/09 11:06:50;;;;;;;2.97;1.90;;;;;;;;;;5043218;28;20427;-82
2022/08/09 11:09:19;;;;;;;3.10;1.65;;;;;;;;;;5046311;28;20799;-81
2022/08/09 11:12:05;;;;;;;2.70;1.70;;;;;;;;;;5045393;28;20458;-81
2022/08/09 11:14:34;;;;;;;1.70;1.23;;;;;;;;;;5044881;28;20430;-80
2022/08/09 11:17:00;;;;;;;1.75;1.50;;;;;;;;;;5044398;28;20454;-80
2022/08/09 11:19:46;;;;;;;1.77;1.58;;;;;;;;;;5043259;28;20968;-80
2022/08/09 11:22:12;;;;;;;3.15;1.80;;;;;;;;;;5044595;28;20790;-80
2022/08/09 11:24:57;;;;;;;1.90;1.70;;;;;;;;;;5043282;28;20906;-80
2022/08/09 11:27:33;;;;;;;2.33;1.55;;;;;;;;;;5043203;28;20427;-79
2022/08/09 11:30:00;;;;;;;2.20;1.60;;;;;;;;;;5043674;28;20452;-81
2022/08/09 11:32:43;;;;;;;2.40;1.50;;;;;;;;;;5044090;28;20469;-80
2022/08/09 11:35:13;;;;;;;2.13;1.77;;;;;;;;;;5043282;28;20924;-79
2022/08/09 11:37:40;;;;;;;2.10;1.65;;;;;;;;;;5043553;28;20834;-81
2022/08/09 11:40:08;;;;;;;2.00;1.60;;;;;;;;;;5045405;28;20433;-80
2022/08/09 11:42:40;;;;;;;1.88;1.40;;;;;;;;;;5045052;28;20427;-79
2022/08/09 11:45:17;;;;;;;2.00;1.40;;;;;;;;;;5043224;28;20879;-83
2022/08/09 11:47:44;;;;;;;1.50;1.37;;;;;;;;;;5040360;28;20532;-81
2022/08/09 11:50:10;;;;;;;2.40;1.40;;;;;;;;;;5043662;28;20425;-81
2022/08/09 11:53:08;;;;;;;2.40;1.38;;;;;;;;;;5044733;28;20425;-81
2022/08/09 11:55:36;;;;;;;1.90;1.50;;;;;;;;;;5042751;28;20436;-81
2022/08/09 11:58:05;;;;;;;2.13;1.70;;;;;;;;;;5044264;28;20446;-81
2022/08/09 12:00:32;;;;;;;2.80;1.70;;;;;;;;;;5044173;28;20430;-80
2022/08/09 12:03:00;;;;;;;3.60;1.80;;;;;;;;;;5044341;28;20774;-81
2022/08/09 12:05:30;;;;;;;3.20;1.88;;;;;;;;;;5045186;28;20475;-80
2022/08/09 12:07:56;;;;;;;2.60;2.00;;;;;;;;;;5040530;28;20858;-80
2022/08/09 12:10:24;;;;;;;2.10;1.40;;;;;;;;;;5041998;28;20425;-80
2022/08/09 12:12:51;;;;;;;2.15;1.40;;;;;;;;;;5044211;28;20459;-81
2022/08/09 12:15:21;;;;;;;1.70;1.60;;;;;;;;;;5042724;28;20439;-80
2022/08/09 12:17:48;;;;;;;2.60;1.42;;;;;;;;;;5041972;28;20415;-79
2022/08/09 12:20:15;;;;;;;2.38;1.48;;;;;;;;;;5041270;28;20426;-80
2022/08/09 12:22:42;;;;;;;3.28;1.50;;;;;;;;;;5041386;28;20435;-80
2022/08/09 12:25:12;;;;;;;1.80;1.40;;;;;;;;;;5041765;28;20426;-80
2022/08/09 12:27:39;;;;;;;1.85;1.40;;;;;;;;;;5041277;28;20435;-80
2022/08/09 12:30:06;;;;;;;2.20;1.50;;;;;;;;;;5043655;28;20430;-80
2022/08/09 12:32:34;;;;;;;1.50;1.40;;;;;;;;;;5042354;28;20428;-81
2022/08/09 12:35:02;;;;;;;3.40;1.40;;;;;;;;;;5041800;28;20438;-79
2022/08/09 12:37:32;;;;;;;2.58;1.40;;;;;;;;;;5042715;28;20437;-79
2022/08/09 12:39:59;;;;;;;1.67;1.30;;;;;;;;;;5043061;28;20492;-80
2022/08/09 12:42:26;;;;;;;1.50;1.40;;;;;;;;;;5041357;28;20435;-80
2022/08/09 12:44:53;;;;;;;1.40;1.30;;;;;;;;;;5041608;28;21036;-82
2022/08/09 12:47:20;;;;;;;1.70;1.50;;;;;;;;;;5041461;28;20864;-82
2022/08/09 12:50:16;;;;;;;2.25;1.60;;;;;;;;;;5041572;28;20460;-82
2022/08/09 12:52:38;;;;;;;1.45;1.30;;;;;;;;;;5043520;28;20459;-79
2022/08/09 12:55:08;;;;;;;1.40;1.30;;;;;;;;;;5044689;28;20435;-82
2022/08/09 12:57:35;;;;;;;1.30;1.20;;;;;;;;;;5043577;28;20430;-79
2022/08/09 13:00:10;;;;;;;1.52;1.30;;;;;;;;;;5040675;28;20427;-80
2022/08/09 13:02:47;;;;;;;2.25;1.33;;;;;;;;;;5041268;28;21030;-82
2022/08/09 13:05:14;;;;;;;1.70;1.60;;;;;;;;;;5043324;28;20429;-80
2022/08/09 13:07:42;;;;;;;2.30;1.70;;;;;;;;;;5040965;28;20429;-80
2022/08/09 13:10:08;;;;;;;2.38;1.48;;;;;;;;;;5040810;28;20437;-80
2022/08/09 13:12:46;;;;;;;1.50;1.40;;;;;;;;;;5040304;28;20475;-81
2022/08/09 13:15:12;;;;;;;1.80;1.70;;;;;;;;;;5043398;28;20441;-81
2022/08/09 13:17:39;;;;;;;2.50;1.60;;;;;;;;;;5038632;28;20673;-81
2022/08/09 13:20:07;;;;;;;3.03;1.70;;;;;;;;;;5039669;28;20789;-81
2022/08/09 13:22:35;;;;;;;2.00;1.50;;;;;;;;;;5044672;28;20432;-80
2022/08/09 13:25:01;;;;;;;1.80;1.70;;;;;;;;;;5043686;28;20518;-81
2022/08/09 13:27:28;;;;;;;2.27;1.50;;;;;;;;;;5042371;28;20427;-81
2022/08/09 13:29:56;;;;;;;2.47;1.70;;;;;;;;;;5041496;28;20432;-81
2022/08/09 13:32:23;;;;;;;2.85;1.50;;;;;;;;;;5042598;28;20438;-80
2022/08/09 13:34:50;;;;;;;2.10;1.55;;;;;;;;;;5042607;28;20431;-81
2022/08/09 13:37:16;;;;;;;2.50;1.58;;;;;;;;;;5041525;28;20429;-81
2022/08/09 13:39:45;;;;;;;2.70;1.80;;;;;;;;;;5041826;28;20516;-81
2022/08/09 13:42:12;;;;;;;1.90;1.80;;;;;;;;;;5043075;28;20435;-82
2022/08/09 13:44:40;;;;;;;2.38;1.60;;;;;;;;;;5044975;28;21083;-81
2022/08/09 13:47:09;;;;;;;2.20;1.77;;;;;;;;;;5043206;28;20426;-80
2022/08/09 13:49:36;;;;;;;2.70;1.95;;;;;;;;;;5042872;28;20599;-81
2022/08/09 13:52:03;;;;;;;4.22;1.90;;;;;;;;;;5040053;28;20430;-80
2022/08/09 13:54:29;;;;;;;1.90;1.40;;;;;;;;;;5041791;28;20436;-80
2022/08/09 13:56:57;;;;;;;2.93;1.83;;;;;;;;;;5038553;28;20425;-81
2022/08/09 13:59:23;;;;;;;2.05;1.63;;;;;;;;;;5041567;28;20409;-80
2022/08/09 14:01:50;;;;;;;1.70;1.60;;;;;;;;;;5042852;28;20422;-79
2022/08/09 14:04:16;;;;;;;2.28;1.80;;;;;;;;;;5041560;28;20450;-80
2022/08/09 14:06:43;;;;;;;1.90;1.67;;;;;;;;;;5042852;28;20436;-81
2022/08/09 14:09:09;;;;;;;2.13;1.70;;;;;;;;;;5041782;28;20434;-80
2022/08/09 14:11:36;;;;;;;2.85;1.92;;;;;;;;;;5039835;28;20430;-80
2022/08/09 14:14:03;;;;;;;3.23;1.90;;;;;;;;;;5041930;28;20425;-81
2022/08/09 14:16:30;;;;;;;4.43;2.35;;;;;;;;;;5041533;28;20415;-82
2022/08/09 14:18:56;;;;;;;2.05;1.85;;;;;;;;;;5042458;28;20435;-80
2022/08/09 14:21:23;;;;;;;3.90;2.15;;;;;;;;;;5041886;28;20882;-80
2022/08/09 14:23:50;;;;;;;2.20;2.00;;;;;;;;;;5042296;28;20436;-80
2022/08/09 14:26:17;;;;;;;7.32;1.90;;;;;;;;;;5041777;28;20883;-81
2022/08/09 14:28:43;;;;;;;3.67;2.20;;;;;;;;;;5042338;28;20492;-80
2022/08/09 14:31:11;;;;;;;2.78;1.70;;;;;;;;;;5046499;28;20421;-81
2022/08/09 14:33:37;;;;;;;2.60;2.00;;;;;;;;;;5046556;28;20431;-80
2022/08/09 14:36:04;;;;;;;3.28;2.13;;;;;;;;;;5046231;28;20934;-83
2022/08/09 14:38:30;;;;;;;3.80;2.33;;;;;;;;;;5047089;28;20438;-80
2022/08/09 14:40:57;;;;;;;3.33;2.00;;;;;;;;;;5044473;28;20419;-79
2022/08/09 14:43:23;;;;;;;3.33;1.88;;;;;;;;;;5044423;28;20429;-82
2022/08/09 14:45:50;;;;;;;2.75;2.10;;;;;;;;;;5045477;28;20476;-81
2022/08/09 14:48:18;;;;;;;3.08;1.90;;;;;;;;;;5046798;28;20435;-81
2022/08/09 14:50:45;;;;;;;2.97;2.10;;;;;;;;;;5044775;28;20432;-81